Time;durP1;ratioP1;P1;durP2;ratioP2;P2;SDS_P1;SDS_P2;PMS_P1;PMS_P2;Temp;Humidity;BMP_temperature;BMP_pressure;BME280_temperature;BME280_humidity;BME280_pressure;Samples;Min_cycle;Max_cycle;Signal;HPM_P1;HPM_P2
2023/08/16 00:01:38;;;;;;;;;3.33;3.00;;;;;22.36;55.82;101620.47;5090235;27;59325;-42
2023/08/16 00:04:04;;;;;;;;;3.00;2.50;;;;;22.36;55.87;101620.47;5084878;27;70280;-44
2023/08/16 00:06:29;;;;;;;;;2.50;2.25;;;;;22.36;56.00;101617.75;5094054;27;45402;-45
2023/08/16 00:08:58;;;;;;;;;1.25;1.25;;;;;22.36;55.43;101610.50;5095207;27;68415;-42
2023/08/16 00:11:24;;;;;;;;;3.00;3.00;;;;;22.34;55.91;101611.59;5089908;27;45561;-43
2023/08/16 00:13:50;;;;;;;;;6.00;4.00;;;;;22.30;55.60;101617.25;5087531;27;45413;-44
2023/08/16 00:16:15;;;;;;;;;3.50;3.50;;;;;22.28;56.10;101613.84;5099972;27;69208;-43
2023/08/16 00:18:40;;;;;;;;;3.00;3.00;;;;;22.26;55.78;101615.81;5093188;27;53809;-43
2023/08/16 00:21:06;;;;;;;;;2.00;2.00;;;;;22.24;55.31;101608.81;5081616;27;65230;-44
2023/08/16 00:23:31;;;;;;;;;3.00;2.00;;;;;22.19;55.48;101608.34;5095427;27;72198;-45
2023/08/16 00:25:56;;;;;;;;;3.00;3.00;;;;;22.12;55.54;101608.03;5097964;27;67046;-43
2023/08/16 00:28:22;;;;;;;;;2.00;2.00;;;;;22.08;55.74;101606.59;5087185;27;68401;-42
2023/08/16 00:30:51;;;;;;;;;2.25;2.00;;;;;22.04;56.00;101605.16;5076042;27;45477;-43
2023/08/16 00:33:17;;;;;;;;;2.33;2.33;;;;;22.01;55.70;101608.97;5100129;27;46024;-44
2023/08/16 00:35:42;;;;;;;;;3.25;2.00;;;;;21.97;55.87;101612.94;5099891;27;45442;-43
2023/08/16 00:38:07;;;;;;;;;3.25;3.00;;;;;21.96;55.93;101611.22;5084501;27;63925;-43
2023/08/16 00:40:33;;;;;;;;;3.50;2.25;;;;;21.95;56.22;101607.66;5077682;28;60168;-42
2023/08/16 00:42:58;;;;;;;;;1.75;1.75;;;;;21.97;56.16;101607.53;5099517;27;47041;-45
2023/08/16 00:45:23;;;;;;;;;3.00;2.75;;;;;21.98;56.02;101598.41;5086596;27;71748;-43
2023/08/16 00:47:49;;;;;;;;;1.75;1.75;;;;;21.98;56.13;101610.09;5098658;27;67989;-43
2023/08/16 00:50:14;;;;;;;;;2.67;2.33;;;;;21.98;55.83;101593.00;5099763;27;64423;-43
2023/08/16 00:52:40;;;;;;;;;2.00;2.00;;;;;21.98;56.23;101585.72;5080305;27;55350;-42
2023/08/16 00:55:07;;;;;;;;;3.00;3.00;;;;;21.97;55.90;101592.13;5099427;27;70372;-42
2023/08/16 00:57:33;;;;;;;;;2.50;2.50;;;;;21.97;56.34;101583.16;5098607;27;61454;-43
2023/08/16 00:59:58;;;;;;;;;3.00;3.00;;;;;21.95;56.10;101588.72;5069005;28;45339;-42
2023/08/16 01:02:24;;;;;;;;;1.00;1.00;;;;;21.93;55.99;101581.72;5079257;27;73795;-42
2023/08/16 01:04:49;;;;;;;;;2.00;2.00;;;;;21.89;56.57;101581.09;5095741;27;71562;-44
2023/08/16 01:07:14;;;;;;;;;3.25;2.00;;;;;21.90;56.27;101576.53;5099584;27;45346;-43
2023/08/16 01:09:40;;;;;;;;;2.25;2.25;;;;;21.89;56.70;101569.41;5094968;27;45342;-42
2023/08/16 01:12:11;;;;;;;;;3.50;3.50;;;;;21.88;56.34;101568.56;5092808;27;55219;-43
2023/08/16 01:14:45;;;;;;;;;2.25;1.75;;;;;21.85;56.74;101558.00;5080573;27;45303;-43
2023/08/16 01:17:12;;;;;;;;;4.00;3.00;;;;;21.81;56.65;101557.41;5098989;27;45436;-42
2023/08/16 01:19:38;;;;;;;;;3.25;2.00;;;;;21.77;56.19;101555.06;5075991;27;45563;-42
2023/08/16 01:22:32;;;;;;;;;1.75;1.75;;;;;21.70;56.41;101560.16;5064233;28;55218;-42
2023/08/16 01:25:22;;;;;;;;;1.00;1.00;;;;;21.59;56.03;101562.91;5056931;27;45581;-43
2023/08/16 01:27:51;;;;;;;;;3.33;2.00;;;;;21.53;56.61;101571.53;5063471;28;45407;-44
2023/08/16 01:30:17;;;;;;;;;2.67;1.67;;;;;21.54;56.60;101576.84;5067030;28;45446;-43
2023/08/16 01:32:43;;;;;;;;;2.00;2.00;;;;;21.58;56.29;101593.69;5086170;27;45442;-44
2023/08/16 01:35:08;;;;;;;;;3.50;2.75;;;;;21.60;56.46;101589.88;5067239;28;45484;-43
2023/08/16 01:37:34;;;;;;;;;2.25;1.25;;;;;21.63;55.87;101594.16;5064846;27;45276;-43
2023/08/16 01:40:04;;;;;;;;;2.00;2.00;;;;;21.61;56.34;101601.53;5076798;28;45396;-46
2023/08/16 01:42:32;;;;;;;;;2.67;2.00;;;;;21.56;56.09;101604.66;5058587;28;47201;-44
2023/08/16 01:44:59;;;;;;;;;1.75;1.25;;;;;21.55;55.68;101605.63;5077111;28;45394;-43
2023/08/16 01:47:26;;;;;;;;;4.00;2.00;;;;;21.58;55.96;101605.38;5075145;27;47830;-42
2023/08/16 01:49:52;;;;;;;;;2.67;2.67;;;;;21.62;56.19;101608.69;5068213;28;45430;-43
2023/08/16 01:52:18;;;;;;;;;2.00;2.00;;;;;21.65;56.12;101611.13;5066642;28;45446;-43
2023/08/16 01:54:43;;;;;;;;;2.00;2.00;;;;;21.69;56.15;101617.97;5066561;28;65951;-42
2023/08/16 01:57:08;;;;;;;;;2.00;2.00;;;;;21.73;55.89;101613.19;5078420;27;61992;-46
2023/08/16 01:59:33;;;;;;;;;2.00;2.00;;;;;21.75;55.62;101605.78;5071691;27;56509;-43
2023/08/16 02:01:59;;;;;;;;;3.75;1.00;;;;;21.77;56.06;101599.25;5066359;28;58147;-43
2023/08/16 02:04:24;;;;;;;;;1.75;1.00;;;;;21.78;55.92;101606.41;5064039;28;45422;-43
2023/08/16 02:06:50;;;;;;;;;2.00;2.00;;;;;21.77;55.60;101598.38;5064899;28;68550;-43
2023/08/16 02:09:15;;;;;;;;;1.25;1.25;;;;;21.74;54.79;101596.81;5076789;27;45704;-43
2023/08/16 02:11:40;;;;;;;;;2.50;1.00;;;;;21.71;55.28;101601.63;5064167;27;46922;-42
2023/08/16 02:14:06;;;;;;;;;1.25;0.50;;;;;21.69;54.86;101603.59;5069970;27;46333;-42
2023/08/16 02:16:31;;;;;;;;;2.50;1.00;;;;;21.66;54.74;101601.16;5066585;28;66066;-43
2023/08/16 02:18:56;;;;;;;;;2.75;2.00;;;;;21.66;54.87;101596.59;5069103;28;49830;-42
2023/08/16 02:21:22;;;;;;;;;2.00;1.25;;;;;21.63;54.47;101592.31;5086238;27;49982;-42
2023/08/16 02:23:47;;;;;;;;;1.25;1.25;;;;;21.64;54.51;101603.97;5067241;27;56749;-43
2023/08/16 02:26:12;;;;;;;;;1.00;1.00;;;;;21.61;54.16;101604.25;5067886;28;45717;-45
2023/08/16 02:28:38;;;;;;;;;1.00;1.00;;;;;21.59;53.95;101606.22;5081498;27;68445;-44
2023/08/16 02:31:07;;;;;;;;;1.00;1.00;;;;;21.55;54.66;101602.94;5093183;27;72655;-44
2023/08/16 02:33:33;;;;;;;;;1.67;1.67;;;;;21.54;54.35;101590.38;5098707;27;45706;-44
2023/08/16 02:35:58;;;;;;;;;1.00;1.00;;;;;21.53;53.88;101585.06;5085411;27;45497;-43
2023/08/16 02:38:24;;;;;;;;;4.00;1.00;;;;;21.47;53.59;101592.72;5092388;27;45496;-43
2023/08/16 02:40:50;;;;;;;;;1.50;1.50;;;;;21.41;53.67;101598.63;5080367;27;45535;-43
2023/08/16 02:43:15;;;;;;;;;1.50;1.50;;;;;21.32;53.66;101608.38;5097762;27;73312;-43
2023/08/16 02:45:41;;;;;;;;;2.25;1.00;;;;;21.27;53.34;101588.94;5077791;27;45394;-45
2023/08/16 02:48:06;;;;;;;;;0.00;0.00;;;;;21.25;53.31;101593.66;5078448;28;45421;-43
2023/08/16 02:50:31;;;;;;;;;1.00;1.00;;;;;21.25;53.70;101593.66;5092023;27;46164;-46
2023/08/16 02:52:57;;;;;;;;;1.00;1.00;;;;;21.24;53.73;101599.19;5097535;27;71998;-46
2023/08/16 02:55:22;;;;;;;;;1.00;1.00;;;;;21.23;53.15;101590.19;5097187;27;59390;-43
2023/08/16 02:57:47;;;;;;;;;1.00;1.00;;;;;21.21;53.36;101594.91;5097852;27;63393;-43
2023/08/16 03:00:13;;;;;;;;;1.00;1.00;;;;;21.23;53.72;101586.66;5097924;27;45505;-44
2023/08/16 03:02:39;;;;;;;;;0.50;0.50;;;;;21.23;52.92;101583.94;5092908;27;45440;-43
2023/08/16 03:05:04;;;;;;;;;1.50;1.00;;;;;21.21;53.26;101575.09;5093025;27;50686;-44
2023/08/16 03:07:30;;;;;;;;;0.00;0.00;;;;;21.20;53.04;101587.75;5076233;27;45704;-43
2023/08/16 03:09:55;;;;;;;;;3.50;2.25;;;;;21.20;53.57;101576.94;5097331;27;75676;-43
2023/08/16 03:12:21;;;;;;;;;1.00;1.00;;;;;21.21;53.66;101567.84;5089488;27;45434;-43
2023/08/16 03:14:46;;;;;;;;;1.00;0.50;;;;;21.22;52.99;101577.66;5080723;27;67812;-44
2023/08/16 03:17:11;;;;;;;;;0.75;0.00;;;;;21.25;53.25;101577.41;5086567;27;55191;-43
2023/08/16 03:19:37;;;;;;;;;1.00;1.00;;;;;21.28;53.45;101576.31;5095345;27;45370;-43
2023/08/16 03:22:02;;;;;;;;;1.25;1.25;;;;;21.28;53.09;101576.31;5085074;27;50182;-42
2023/08/16 03:24:28;;;;;;;;;2.00;2.00;;;;;21.27;52.90;101566.47;5095224;27;55731;-45
2023/08/16 03:26:53;;;;;;;;;1.50;1.00;;;;;21.29;53.22;101575.31;5089655;27;48048;-43
2023/08/16 03:29:19;;;;;;;;;1.00;1.00;;;;;21.30;53.15;101574.31;5082419;27;46077;-44
2023/08/16 03:31:44;;;;;;;;;2.00;1.00;;;;;21.31;53.30;101571.50;5080232;27;66148;-44
2023/08/16 03:34:10;;;;;;;;;1.00;1.00;;;;;21.32;53.29;101577.75;5094756;27;45367;-42
2023/08/16 03:36:35;;;;;;;;;1.25;1.25;;;;;21.33;52.84;101582.19;5100644;27;45436;-42
2023/08/16 03:39:05;;;;;;;;;1.00;1.00;;;;;21.35;52.92;101582.91;5088945;27;74196;-44
2023/08/16 03:41:30;;;;;;;;;0.50;0.50;;;;;21.36;52.92;101586.50;5088298;27;45802;-43
2023/08/16 03:43:55;;;;;;;;;2.50;1.25;;;;;21.36;52.39;101586.50;5100919;27;45719;-42
2023/08/16 03:46:21;;;;;;;;;1.00;1.00;;;;;21.36;53.05;101573.81;5087322;27;68627;-42
2023/08/16 03:48:46;;;;;;;;;1.50;1.50;;;;;21.36;52.71;101579.22;5099533;27;71514;-44
2023/08/16 03:51:11;;;;;;;;;1.50;1.50;;;;;21.37;52.71;101583.66;5100228;27;70872;-44
2023/08/16 03:53:37;;;;;;;;;3.00;1.00;;;;;21.36;52.95;101579.22;5081876;27;65962;-43
2023/08/16 03:56:02;;;;;;;;;1.00;1.00;;;;;21.37;52.53;101577.38;5093970;27;48297;-42
2023/08/16 03:58:27;;;;;;;;;2.75;1.00;;;;;21.37;52.73;101580.94;5081108;27;45525;-44
2023/08/16 04:00:53;;;;;;;;;1.00;1.00;;;;;21.36;52.37;101573.81;5100633;27;67864;-43
2023/08/16 04:03:19;;;;;;;;;0.75;0.75;;;;;21.37;52.73;101567.41;5090124;27;45311;-44
2023/08/16 04:05:44;;;;;;;;;1.00;1.00;;;;;21.36;52.49;101570.25;5100686;27;45371;-45
2023/08/16 04:08:10;;;;;;;;;1.75;1.00;;;;;21.33;52.29;101574.06;5097231;27;52491;-43
2023/08/16 04:10:36;;;;;;;;;2.00;1.00;;;;;21.33;52.18;101574.06;5081717;27;45465;-42
2023/08/16 04:13:01;;;;;;;;;0.75;0.75;;;;;21.30;52.44;101568.91;5088978;27;45406;-42
2023/08/16 04:15:27;;;;;;;;;1.00;1.00;;;;;21.28;52.37;101571.75;5076025;28;45774;-44
2023/08/16 04:17:54;;;;;;;;;2.75;1.00;;;;;21.27;52.19;101575.44;5091454;27;74249;-43
2023/08/16 04:20:19;;;;;;;;;1.00;1.00;;;;;21.25;52.73;101574.72;5074803;28;45262;-42
2023/08/16 04:22:45;;;;;;;;;1.00;1.00;;;;;21.26;52.22;101583.69;5080093;27;55861;-46
2023/08/16 04:25:10;;;;;;;;;1.00;1.00;;;;;21.24;52.42;101570.28;5079969;27;45366;-43
2023/08/16 04:27:36;;;;;;;;;0.75;0.00;;;;;21.24;52.87;101570.28;5082644;27;45949;-44
2023/08/16 04:30:01;;;;;;;;;1.50;1.00;;;;;21.21;52.68;101567.84;5095786;27;45486;-44
2023/08/16 04:32:26;;;;;;;;;0.50;0.50;;;;;21.19;52.95;101568.97;5097039;27;64524;-42
2023/08/16 04:34:51;;;;;;;;;3.00;1.00;;;;;21.16;52.51;101567.38;5086248;27;58587;-43
2023/08/16 04:37:17;;;;;;;;;2.00;1.00;;;;;21.15;52.95;101568.34;5097972;27;57914;-43
2023/08/16 04:39:42;;;;;;;;;2.00;1.00;;;;;21.13;53.17;101575.72;5092230;27;62744;-44
2023/08/16 04:42:07;;;;;;;;;1.00;1.00;;;;;21.10;52.77;101571.44;5094278;27;64047;-43
2023/08/16 04:44:33;;;;;;;;;0.00;0.00;;;;;21.08;53.39;101575.25;5094658;27;45569;-43
2023/08/16 04:46:59;;;;;;;;;1.00;1.00;;;;;21.05;53.02;101580.91;5091634;27;54763;-44
2023/08/16 04:49:26;;;;;;;;;1.67;1.67;;;;;21.03;52.85;101572.94;5098877;27;45344;-43
2023/08/16 04:51:52;;;;;;;;;1.00;1.00;;;;;21.02;53.37;101573.91;5100552;27;45397;-45
2023/08/16 04:54:18;;;;;;;;;2.00;2.00;;;;;20.99;53.36;101577.72;5100462;27;46354;-43
2023/08/16 04:56:43;;;;;;;;;1.00;1.00;;;;;20.98;53.53;101586.81;5095970;27;46851;-43
2023/08/16 04:59:09;;;;;;;;;1.00;1.00;;;;;20.96;53.64;101583.41;5079817;27;45245;-45
2023/08/16 05:01:35;;;;;;;;;2.00;2.00;;;;;20.96;53.64;101586.09;5080821;27;69953;-44
2023/08/16 05:04:03;;;;;;;;;1.00;1.00;;;;;20.94;53.36;101577.25;5078794;27;45649;-42
2023/08/16 05:06:29;;;;;;;;;0.25;0.25;;;;;20.94;53.38;101581.81;5098123;27;46439;-43
2023/08/16 05:08:54;;;;;;;;;3.00;1.50;;;;;20.93;53.83;101572.81;5099860;27;45673;-44
2023/08/16 05:11:19;;;;;;;;;1.00;1.00;;;;;20.95;53.67;101583.50;5088633;27;58463;-43
2023/08/16 05:13:45;;;;;;;;;1.00;1.00;;;;;20.94;53.23;101579.09;5099165;27;45476;-44
2023/08/16 05:16:10;;;;;;;;;2.00;2.00;;;;;20.93;53.71;101583.63;5099762;27;60251;-44
2023/08/16 05:18:35;;;;;;;;;3.00;2.00;;;;;20.90;53.92;101578.50;5093746;27;45441;-48
2023/08/16 05:21:02;;;;;;;;;2.00;2.00;;;;;20.89;53.56;101586.72;5089051;27;45806;-52
2023/08/16 05:23:28;;;;;;;;;2.67;1.33;;;;;20.89;53.54;101584.88;5092032;27;45343;-43
2023/08/16 05:25:54;;;;;;;;;0.67;0.67;;;;;20.90;53.90;101596.53;5091153;27;46380;-43
2023/08/16 05:28:19;;;;;;;;;1.00;1.00;;;;;20.91;53.91;101590.16;5081063;27;50507;-45
2023/08/16 05:30:44;;;;;;;;;3.00;2.00;;;;;20.93;53.75;101591.75;5069030;28;45422;-46
2023/08/16 05:33:09;;;;;;;;;1.33;1.00;;;;;20.95;54.32;101587.09;5084721;27;55569;-45
2023/08/16 05:35:35;;;;;;;;;2.33;1.00;;;;;20.96;53.91;101583.41;5074467;27;63039;-43
2023/08/16 05:38:01;;;;;;;;;1.33;1.33;;;;;21.00;54.27;101586.69;5094756;27;68769;-46
2023/08/16 05:40:27;;;;;;;;;1.00;1.00;;;;;21.03;53.87;101585.56;5069729;27;45544;-44
2023/08/16 05:42:52;;;;;;;;;1.00;1.00;;;;;21.08;54.09;101594.16;5094126;27;45372;-45
2023/08/16 05:45:21;;;;;;;;;2.33;2.33;;;;;21.13;54.12;101600.94;5070284;27;73574;-44
2023/08/16 05:47:46;;;;;;;;;3.00;1.50;;;;;21.19;53.81;101591.44;5097989;27;45254;-47
2023/08/16 05:50:12;;;;;;;;;2.00;1.00;;;;;21.27;54.15;101586.25;5099085;27;45392;-46
2023/08/16 05:52:37;;;;;;;;;1.00;1.00;;;;;21.37;53.91;101578.25;5097876;27;45501;-47
2023/08/16 05:55:02;;;;;;;;;4.00;2.00;;;;;21.44;53.65;101579.44;5099744;27;46084;-46
2023/08/16 05:57:28;;;;;;;;;2.00;2.00;;;;;21.51;53.60;101579.78;5096613;27;45934;-44
2023/08/16 05:59:53;;;;;;;;;3.67;3.33;;;;;21.58;53.84;101582.88;5086387;27;49447;-43
2023/08/16 06:02:23;;;;;;;;;5.00;2.00;;;;;21.63;53.94;101584.19;5081994;27;45470;-42
2023/08/16 06:04:49;;;;;;;;;4.67;2.67;;;;;21.69;53.59;101585.50;5099086;27;46064;-42
2023/08/16 06:07:14;;;;;;;;;3.00;2.00;;;;;21.75;53.87;101587.69;5094453;27;45359;-43
2023/08/16 06:09:39;;;;;;;;;3.00;3.00;;;;;21.81;53.45;101591.72;5094303;27;66326;-44
2023/08/16 06:12:05;;;;;;;;;2.00;2.00;;;;;21.86;53.27;101592.19;5090755;27;61152;-43
2023/08/16 06:14:30;;;;;;;;;1.00;1.00;;;;;21.93;53.27;101595.25;5088913;27;45378;-43
2023/08/16 06:16:56;;;;;;;;;3.00;3.00;;;;;22.01;53.48;101616.25;5094678;27;55199;-44
2023/08/16 06:19:21;;;;;;;;;5.00;3.00;;;;;22.06;53.52;101609.44;5093629;27;59695;-45
2023/08/16 06:21:46;;;;;;;;;6.33;3.00;;;;;22.12;53.26;101613.47;5091794;27;70366;-44
2023/08/16 06:24:12;;;;;;;;;2.00;2.00;;;;;22.14;53.35;101614.19;5092842;27;62690;-46
2023/08/16 06:26:37;;;;;;;;;3.00;2.00;;;;;22.17;53.17;101604.94;5093322;27;67348;-45
2023/08/16 06:29:02;;;;;;;;;3.67;3.00;;;;;22.22;53.38;101608.97;5071550;27;69518;-44
2023/08/16 06:31:28;;;;;;;;;2.00;1.33;;;;;22.23;52.98;101609.84;5098158;27;45389;-47
2023/08/16 06:33:53;;;;;;;;;4.00;3.00;;;;;22.23;52.92;101610.69;5088179;27;45678;-44
2023/08/16 06:36:19;;;;;;;;;4.00;2.33;;;;;22.24;53.31;101606.13;5078424;27;45772;-45
2023/08/16 06:38:44;;;;;;;;;4.33;3.00;;;;;22.24;53.02;101609.69;5086679;27;45466;-44
2023/08/16 06:41:10;;;;;;;;;4.67;4.00;;;;;22.25;53.44;101619.56;5093930;27;45669;-44
2023/08/16 06:43:35;;;;;;;;;7.33;4.00;;;;;22.28;53.17;101615.69;5087673;27;46173;-45
2023/08/16 06:46:01;;;;;;;;;4.33;3.33;;;;;22.36;53.55;101625.88;5077110;27;62925;-44
2023/08/16 06:48:26;;;;;;;;;6.67;2.33;;;;;22.46;52.95;101616.84;5098530;27;45444;-47
2023/08/16 06:50:52;;;;;;;;;7.33;2.00;;;;;22.86;52.93;101620.56;5098653;27;45180;-43
2023/08/16 06:53:18;;;;;;;;;3.00;3.00;;;;;23.51;52.26;101622.88;5098351;27;45334;-48
2023/08/16 06:55:43;;;;;;;;;2.00;2.00;;;;;25.09;51.62;101625.06;5097509;27;63121;-49
2023/08/16 06:58:08;;;;;;;;;4.00;3.00;;;;;27.47;47.89;101615.13;5098444;27;60498;-49
2023/08/16 07:00:34;;;;;;;;;6.00;4.33;;;;;29.50;44.70;101607.59;5097370;27;45527;-47
2023/08/16 07:03:02;;;;;;;;;3.00;3.00;;;;;31.56;41.10;101601.63;5099084;27;46808;-48
2023/08/16 07:05:27;;;;;;;;;3.75;3.50;;;;;32.99;38.42;101601.34;5096764;27;45342;-47
2023/08/16 07:07:53;;;;;;;;;2.00;2.00;;;;;33.46;37.05;101601.47;5083920;27;45433;-49
2023/08/16 07:10:18;;;;;;;;;3.75;3.50;;;;;33.49;36.15;101611.25;5072684;27;45746;-47
2023/08/16 07:12:44;;;;;;;;;4.75;2.50;;;;;33.42;36.22;101611.25;5101122;27;46274;-48
2023/08/16 07:15:11;;;;;;;;;5.00;3.50;;;;;33.17;35.56;101626.63;5088808;27;45338;-47
2023/08/16 07:17:36;;;;;;;;;4.50;4.00;;;;;32.63;35.16;101618.13;5084002;27;45402;-49
2023/08/16 07:20:02;;;;;;;;;4.75;3.00;;;;;31.91;35.40;101609.16;5087401;27;46068;-49
2023/08/16 07:22:28;;;;;;;;;3.00;3.00;;;;;31.23;36.17;101613.13;5080675;27;45382;-44
2023/08/16 07:24:53;;;;;;;;;8.75;5.00;;;;;30.59;37.38;101606.41;5096030;27;45316;-44
2023/08/16 07:27:19;;;;;;;;;3.00;3.00;;;;;29.99;38.29;101606.34;5094112;27;45493;-44
2023/08/16 07:29:44;;;;;;;;;2.00;2.00;;;;;29.64;38.15;101618.78;5087253;27;45373;-45
2023/08/16 07:32:10;;;;;;;;;5.50;3.00;;;;;29.28;38.58;101616.66;5080786;27;75959;-44
2023/08/16 07:34:35;;;;;;;;;4.50;4.50;;;;;29.51;39.39;101614.75;5081067;27;45378;-43
2023/08/16 07:37:01;;;;;;;;;4.75;3.75;;;;;30.33;38.38;101612.34;5090397;27;67786;-44
2023/08/16 07:39:29;;;;;;;;;5.75;5.00;;;;;31.41;37.37;101611.88;5088943;27;45413;-44
2023/08/16 07:41:55;;;;;;;;;3.00;3.00;;;;;33.29;34.73;101616.72;5101046;27;46156;-44
2023/08/16 07:44:20;;;;;;;;;5.00;4.00;;;;;35.55;33.59;101612.84;5081553;27;71519;-44
2023/08/16 07:46:46;;;;;;;;;6.50;5.00;;;;;37.55;31.90;101615.31;5101704;27;45424;-47
2023/08/16 07:49:11;;;;;;;;;6.50;3.25;;;;;39.18;30.55;101617.59;5081534;27;69689;-44
2023/08/16 07:51:36;;;;;;;;;9.50;5.75;;;;;40.47;26.79;101614.06;5071867;28;72057;-44
2023/08/16 07:54:02;;;;;;;;;5.00;3.75;;;;;41.24;24.12;101614.16;5079092;27;45473;-45
2023/08/16 07:56:27;;;;;;;;;2.00;1.25;;;;;41.44;25.19;101610.75;5099724;27;45387;-48
2023/08/16 07:58:53;;;;;;;;;4.00;3.00;;;;;41.90;24.18;101608.31;5084996;27;56375;-44
2023/08/16 08:01:18;;;;;;;;;4.50;4.00;;;;;42.14;24.78;101603.19;5090403;27;68499;-46
2023/08/16 08:03:43;;;;;;;;;4.25;2.50;;;;;42.81;23.79;101611.06;5100066;27;45292;-46
2023/08/16 08:06:09;;;;;;;;;6.50;4.75;;;;;43.82;22.98;101607.81;5098555;27;45428;-45
2023/08/16 08:08:34;;;;;;;;;9.25;5.75;;;;;44.72;22.07;101610.91;5100474;27;45553;-44
2023/08/16 08:11:00;;;;;;;;;6.50;4.00;;;;;45.40;20.99;101606.56;5082878;27;45500;-45
2023/08/16 08:13:26;;;;;;;;;6.50;5.00;;;;;45.97;20.43;101600.44;5086414;27;45341;-45
2023/08/16 08:15:51;;;;;;;;;3.50;2.75;;;;;46.60;19.33;101604.16;5098925;27;63079;-46
2023/08/16 08:18:17;;;;;;;;;3.75;3.00;;;;;46.95;19.37;101605.66;5097051;27;69596;-45
2023/08/16 08:20:42;;;;;;;;;6.00;4.50;;;;;46.78;20.66;101613.78;5080066;27;48023;-45
2023/08/16 08:23:07;;;;;;;;;6.75;3.50;;;;;46.72;19.04;101616.69;5086996;27;45851;-45
2023/08/16 08:25:34;;;;;;;;;9.25;5.50;;;;;47.39;18.56;101609.19;5097873;27;64354;-46
2023/08/16 08:27:59;;;;;;;;;6.75;2.75;;;;;48.07;18.05;101606.00;5088570;27;45387;-47
2023/08/16 08:30:24;;;;;;;;;11.00;5.00;;;;;48.65;17.14;101613.00;5089010;27;72938;-44
2023/08/16 08:32:50;;;;;;;;;8.00;4.00;;;;;49.10;17.28;101621.56;5075270;27;45985;-45
2023/08/16 08:35:15;;;;;;;;;5.75;4.50;;;;;49.40;16.55;101624.75;5089141;27;45551;-45
2023/08/16 08:37:40;;;;;;;;;8.25;4.50;;;;;49.47;16.82;101627.97;5099105;27;45585;-45
2023/08/16 08:40:06;;;;;;;;;5.50;5.50;;;;;49.75;16.28;101633.47;5088456;27;70374;-45
2023/08/16 08:42:31;;;;;;;;;5.50;4.00;;;;;50.07;16.34;101628.66;5099476;27;45350;-48
2023/08/16 08:44:59;;;;;;;;;4.25;2.50;;;;;50.35;14.70;101630.44;5100043;27;49739;-45
2023/08/16 08:47:24;;;;;;;;;4.00;3.50;;;;;50.48;15.35;101630.28;5068428;27;45566;-48
2023/08/16 08:49:50;;;;;;;;;2.50;2.50;;;;;50.73;14.86;101632.66;5098635;27;72285;-47
2023/08/16 08:52:17;;;;;;;;;7.50;4.50;;;;;50.96;15.65;101644.66;5080924;27;45716;-46
2023/08/16 08:54:43;;;;;;;;;4.50;3.00;;;;;51.28;14.96;101640.50;5100303;27;45438;-46
2023/08/16 08:57:10;;;;;;;;;4.00;3.00;;;;;51.35;15.75;101637.16;5069515;27;45440;-45
2023/08/16 08:59:38;;;;;;;;;5.00;2.00;;;;;51.34;14.44;101641.16;5099911;27;46050;-46
2023/08/16 09:02:04;;;;;;;;;4.00;4.00;;;;;51.33;15.38;101636.66;5098523;27;45486;-51
2023/08/16 09:04:30;;;;;;;;;1.50;1.50;;;;;51.14;14.35;101639.84;5097748;27;46011;-49
2023/08/16 09:06:56;;;;;;;;;3.75;2.00;;;;;50.92;14.48;101640.84;5096194;27;47794;-50
2023/08/16 09:09:23;;;;;;;;;4.00;2.75;;;;;51.19;14.32;101628.38;5082355;27;45433;-50
2023/08/16 09:11:48;;;;;;;;;5.75;4.00;;;;;51.59;14.27;101630.97;5095208;27;45498;-48
2023/08/16 09:14:14;;;;;;;;;5.50;2.25;;;;;51.22;14.82;101618.38;5091139;27;67740;-49
2023/08/16 09:16:39;;;;;;;;;8.50;4.25;;;;;50.68;15.38;101615.81;5091317;27;69939;-46
2023/08/16 09:19:14;;;;;;;;;2.25;2.25;;;;;50.22;14.32;101609.56;5089122;27;45370;-49
2023/08/16 09:21:41;;;;;;;;;3.50;2.25;;;;;49.44;14.88;101605.19;5086707;27;45412;-46
2023/08/16 09:24:06;;;;;;;;;4.75;3.25;;;;;48.19;16.03;101614.81;5087847;27;45428;-46
2023/08/16 09:26:32;;;;;;;;;9.25;5.00;;;;;46.72;16.94;101627.91;5096428;27;45275;-45
2023/08/16 09:28:58;;;;;;;;;5.75;4.50;;;;;45.06;17.74;101615.75;5099872;27;45994;-46
2023/08/16 09:31:24;;;;;;;;;2.50;1.50;;;;;43.78;19.19;101617.88;5095835;27;45670;-50
2023/08/16 09:33:58;;;;;;;;;2.25;2.25;;;;;42.71;19.55;101620.25;5089376;27;45462;-48
2023/08/16 09:36:29;;;;;;;;;2.25;2.25;;;;;41.71;20.56;101616.28;5067021;27;45212;-45
2023/08/16 09:39:05;;;;;;;;;2.00;2.00;;;;;40.53;21.30;101615.03;5088781;27;45355;-45
2023/08/16 09:41:31;;;;;;;;;2.50;2.50;;;;;39.67;21.97;101611.50;5085732;27;45634;-47
2023/08/16 09:44:07;;;;;;;;;2.00;1.00;;;;;38.96;22.87;101607.13;5098356;27;59475;-45
2023/08/16 09:46:33;;;;;;;;;4.00;2.50;;;;;38.49;23.64;101601.72;5087447;27;45291;-45
2023/08/16 09:49:07;;;;;;;;;2.25;1.00;;;;;38.11;24.46;101600.28;5080133;27;46096;-45
2023/08/16 09:51:40;;;;;;;;;1.00;1.00;;;;;37.79;24.51;101598.72;5078523;27;45589;-44
2023/08/16 09:54:13;;;;;;;;;1.00;1.00;;;;;37.50;25.02;101592.16;5098531;27;45384;-48
2023/08/16 09:56:39;;;;;;;;;2.00;2.00;;;;;37.29;25.16;101590.72;5099117;27;45457;-47
2023/08/16 09:59:08;;;;;;;;;4.00;2.75;;;;;37.07;25.45;101586.56;5086269;27;47086;-47
2023/08/16 10:01:35;;;;;;;;;1.50;1.50;;;;;37.18;25.95;101584.06;5096720;27;45852;-45
2023/08/16 10:04:01;;;;;;;;;2.50;2.50;;;;;37.50;25.54;101575.50;5096751;27;45362;-46
2023/08/16 10:06:29;;;;;;;;;1.50;1.50;;;;;37.86;25.47;101571.69;5096629;27;45383;-48
2023/08/16 10:08:55;;;;;;;;;2.25;2.25;;;;;38.18;24.81;101567.69;5099037;27;47038;-47
2023/08/16 10:11:22;;;;;;;;;1.75;1.75;;;;;38.55;24.97;101556.25;5096438;27;45133;-46
2023/08/16 10:13:48;;;;;;;;;1.00;1.00;;;;;38.75;24.06;101552.22;5079982;27;45284;-48
2023/08/16 10:16:14;;;;;;;;;5.00;2.50;;;;;39.01;24.06;101548.03;5087643;27;47497;-46
2023/08/16 10:18:42;;;;;;;;;2.25;2.25;;;;;39.16;24.19;101553.00;5096128;27;46346;-49
2023/08/16 10:21:08;;;;;;;;;1.00;1.00;;;;;39.25;23.61;101553.47;5080039;27;45496;-48
2023/08/16 10:23:35;;;;;;;;;2.00;1.00;;;;;39.15;24.12;101546.59;5062920;28;45792;-47
2023/08/16 10:26:02;;;;;;;;;1.00;1.00;;;;;39.21;23.31;101547.56;5074686;27;45631;-46
2023/08/16 10:28:28;;;;;;;;;1.25;1.25;;;;;39.39;24.16;101554.81;5098266;27;45397;-46
2023/08/16 10:30:56;;;;;;;;;1.25;0.75;;;;;39.62;23.67;101550.16;5095558;27;67166;-48
2023/08/16 10:33:28;;;;;;;;;1.00;1.00;;;;;39.62;23.15;101548.25;5066526;27;45673;-45
2023/08/16 10:35:54;;;;;;;;;2.00;1.25;;;;;39.64;23.57;101545.22;5079401;27;45379;-45
2023/08/16 10:38:19;;;;;;;;;1.25;1.25;;;;;39.61;23.00;101541.00;5082967;27;46012;-46
2023/08/16 10:40:57;;;;;;;;;5.00;1.00;;;;;39.53;23.65;101544.19;5062709;27;72062;-45
2023/08/16 10:43:31;;;;;;;;;1.00;1.00;;;;;39.43;23.39;101558.78;5081690;27;45473;-45
2023/08/16 10:45:56;;;;;;;;;1.00;1.00;;;;;39.21;23.99;101542.81;5085691;27;45740;-45
2023/08/16 10:48:22;;;;;;;;;0.50;0.50;;;;;39.15;24.02;101554.09;5101059;27;46241;-45
2023/08/16 10:50:56;;;;;;;;;1.00;1.00;;;;;39.05;23.62;101551.97;5085805;27;45662;-46
2023/08/16 10:53:23;;;;;;;;;1.00;1.00;;;;;39.00;24.23;101544.38;5093204;27;45526;-46
2023/08/16 10:55:55;;;;;;;;;0.75;0.75;;;;;39.08;23.62;101539.53;5101007;27;45361;-47
2023/08/16 10:58:25;;;;;;;;;3.50;1.75;;;;;39.10;24.04;101543.72;5082508;27;45459;-45
2023/08/16 11:01:04;;;;;;;;;1.25;1.25;;;;;38.85;23.73;101538.53;5100370;27;45520;-46
2023/08/16 11:03:31;;;;;;;;;1.00;1.00;;;;;38.56;24.02;101541.28;5100386;27;45353;-45
2023/08/16 11:05:59;;;;;;;;;1.00;1.00;;;;;38.30;24.43;101535.19;5081517;27;45480;-44
2023/08/16 11:08:28;;;;;;;;;2.00;2.00;;;;;38.05;24.57;101536.31;5080868;27;45638;-46
2023/08/16 11:10:54;;;;;;;;;0.80;0.80;;;;;37.89;25.18;101532.34;5084455;27;45478;-44
2023/08/16 11:13:19;;;;;;;;;1.00;0.00;;;;;37.84;24.97;101536.94;5077278;27;66468;-45
2023/08/16 11:15:44;;;;;;;;;1.75;1.75;;;;;37.87;24.92;101536.44;5082692;27;68863;-44
2023/08/16 11:18:10;;;;;;;;;1.50;1.00;;;;;37.75;24.90;101539.19;5087258;27;71328;-45
2023/08/16 11:20:35;;;;;;;;;1.00;0.00;;;;;37.37;25.28;101529.41;5070837;27;45463;-45